Paranaita, Brazil
Current Conditions -  °F | °C
As of 5:00 PM on Saturday 20 Dec 2014 (Local Time) from SBAT Reporting Station
Few Clouds Few Clouds  
Wind Chill: 90°   Ceiling: Unl
Heat Index: 95°   Visibility: 6mi
Dew Point: 70°   Wind: 9mph
Humidity: 52%   Direction: 30°NNE
Pressure: 29.8"   Gusts: NA
Location:  9.66°S, 56.48°W
Report Text: SBAT 202000Z 03008KT 9999 FEW027 32/21 Q1009
Loading
Personal Weather Stations






























Interactive Weather Map New forecast layout! Learn more

10-Day Weather Forecast

Advertisements
Track Severe Weather on mobile